createdAt,value
2023-01-31T00:01:46.874Z,52.90
2023-01-31T00:04:20.201Z,52.80
2023-01-31T00:06:54.864Z,52.80
2023-01-31T00:09:28.255Z,52.80
2023-01-31T00:12:01.573Z,52.80
2023-01-31T00:14:35.021Z,52.80
2023-01-31T00:17:08.327Z,52.80
2023-01-31T00:19:41.615Z,52.70
2023-01-31T00:22:16.300Z,52.80
2023-01-31T00:24:49.710Z,52.70
2023-01-31T00:27:22.989Z,52.60
2023-01-31T00:29:56.286Z,52.50
2023-01-31T00:32:29.547Z,52.50
2023-01-31T00:35:02.836Z,52.50
2023-01-31T00:37:37.587Z,52.30
2023-01-31T00:40:12.473Z,52.30
2023-01-31T00:42:45.794Z,52.30
2023-01-31T00:45:19.838Z,52.10
2023-01-31T00:47:53.402Z,51.90
2023-01-31T00:50:28.635Z,52.30
2023-01-31T00:53:03.335Z,52.60
2023-01-31T00:55:36.686Z,53.60
2023-01-31T00:58:10.309Z,54.10
2023-01-31T01:00:43.898Z,54.40
2023-01-31T01:03:18.551Z,54.40
2023-01-31T01:05:51.829Z,54.10
2023-01-31T01:08:26.811Z,54.20
2023-01-31T01:11:06.695Z,54.10
2023-01-31T01:13:41.520Z,54.10
2023-01-31T01:16:16.774Z,54.10
2023-01-31T01:18:54.873Z,54.10
2023-01-31T01:21:30.150Z,54.00
2023-01-31T01:24:13.183Z,54.00
2023-01-31T01:26:46.934Z,54.00
2023-01-31T01:29:20.300Z,53.90
2023-01-31T01:31:53.587Z,53.90
2023-01-31T01:34:26.976Z,53.90
2023-01-31T01:37:00.355Z,53.90
2023-01-31T01:39:35.057Z,54.40
2023-01-31T01:42:14.926Z,53.80
2023-01-31T01:44:52.989Z,53.70
2023-01-31T01:47:41.004Z,53.70
2023-01-31T01:50:17.876Z,53.60
2023-01-31T01:52:55.352Z,53.50
2023-01-31T01:55:33.627Z,53.50
2023-01-31T01:58:12.841Z,53.50
2023-01-31T02:00:49.592Z,53.40
2023-01-31T02:03:24.863Z,53.40
2023-01-31T02:05:59.716Z,53.40
2023-01-31T02:08:34.780Z,53.40
2023-01-31T02:11:14.568Z,53.40
2023-01-31T02:13:49.011Z,53.40
2023-01-31T02:16:22.441Z,53.40
2023-01-31T02:19:21.071Z,53.40
2023-01-31T02:22:14.273Z,53.40
2023-01-31T02:25:24.833Z,53.30
2023-01-31T02:28:40.171Z,53.40
2023-01-31T02:31:43.140Z,53.30
2023-01-31T02:34:26.000Z,53.30
2023-01-31T02:37:11.594Z,53.30
2023-01-31T02:39:53.530Z,53.30
2023-01-31T02:42:36.724Z,53.20
2023-01-31T02:45:15.648Z,53.20
2023-01-31T02:48:07.974Z,53.10
2023-01-31T02:50:55.793Z,53.20
2023-01-31T02:53:33.457Z,53.30
2023-01-31T02:56:18.378Z,53.30
2023-01-31T02:58:59.211Z,53.30
2023-01-31T03:01:35.582Z,53.30
2023-01-31T03:04:10.943Z,53.30
2023-01-31T03:07:00.876Z,53.40
2023-01-31T03:09:41.880Z,53.40
2023-01-31T03:12:29.272Z,53.40
2023-01-31T03:15:17.947Z,53.40
2023-01-31T03:17:59.698Z,53.50
2023-01-31T03:20:43.700Z,53.50
2023-01-31T03:23:20.783Z,53.40
2023-01-31T03:25:55.309Z,53.40
2023-01-31T03:28:31.650Z,53.40
2023-01-31T03:31:09.985Z,53.40
2023-01-31T03:33:47.483Z,53.40
2023-01-31T03:36:29.352Z,53.40
2023-01-31T03:39:17.727Z,53.50
2023-01-31T03:41:59.279Z,53.50
2023-01-31T03:44:42.156Z,53.50
2023-01-31T03:47:20.260Z,53.50
2023-01-31T03:49:55.765Z,53.50
2023-01-31T03:52:36.403Z,53.50
2023-01-31T03:55:18.805Z,53.50
2023-01-31T03:57:55.475Z,53.50
2023-01-31T04:00:29.866Z,53.50
2023-01-31T04:03:11.769Z,53.50
2023-01-31T04:05:46.483Z,53.40
2023-01-31T04:08:19.962Z,53.40
2023-01-31T04:11:04.872Z,53.40
2023-01-31T04:13:38.270Z,53.40
2023-01-31T04:16:11.646Z,53.40
2023-01-31T04:18:44.936Z,53.40
2023-01-31T04:21:18.238Z,53.40
2023-01-31T04:23:51.594Z,53.40
2023-01-31T04:26:26.297Z,53.40
2023-01-31T04:28:59.645Z,53.30
2023-01-31T04:31:33.224Z,53.30
2023-01-31T04:34:07.089Z,53.40
2023-01-31T04:36:40.433Z,53.30
2023-01-31T04:39:15.073Z,53.30
2023-01-31T04:41:49.775Z,53.30
2023-01-31T04:44:23.239Z,53.30
2023-01-31T04:46:56.564Z,53.30
2023-01-31T04:49:29.977Z,53.40
2023-01-31T04:52:03.350Z,53.40
2023-01-31T04:54:36.732Z,53.40
2023-01-31T04:57:11.450Z,53.40
2023-01-31T04:59:44.731Z,53.40
2023-01-31T05:02:18.345Z,53.30
2023-01-31T05:04:51.508Z,53.30
2023-01-31T05:07:24.870Z,53.30
2023-01-31T05:09:58.245Z,53.30
2023-01-31T05:12:33.073Z,53.40
2023-01-31T05:15:07.724Z,53.30
2023-01-31T05:17:41.088Z,53.30
2023-01-31T05:20:14.414Z,53.20
2023-01-31T05:22:48.654Z,53.20
2023-01-31T05:25:22.360Z,53.10
2023-01-31T05:27:57.003Z,53.10
2023-01-31T05:30:31.335Z,53.10
2023-01-31T05:33:05.057Z,53.40
2023-01-31T05:35:39.464Z,53.20
2023-01-31T05:38:12.815Z,53.20
2023-01-31T05:40:46.438Z,53.10
2023-01-31T05:43:21.069Z,53.40
2023-01-31T05:45:54.398Z,53.60
2023-01-31T05:48:27.680Z,53.50
2023-01-31T05:51:01.005Z,53.50
2023-01-31T05:53:34.313Z,53.30
2023-01-31T05:56:08.365Z,53.30
2023-01-31T05:58:43.008Z,53.30
2023-01-31T06:01:16.299Z,52.90
2023-01-31T06:03:49.854Z,52.90
2023-01-31T06:06:23.200Z,52.90
2023-01-31T06:08:56.501Z,52.70
2023-01-31T06:11:29.837Z,52.80
2023-01-31T06:14:04.698Z,52.70
2023-01-31T06:16:38.023Z,52.50
2023-01-31T06:19:11.345Z,52.40
2023-01-31T06:21:44.663Z,52.30
2023-01-31T06:24:18.194Z,52.30
2023-01-31T06:26:51.566Z,52.20
2023-01-31T06:29:26.324Z,52.00
2023-01-31T06:31:59.599Z,52.20
2023-01-31T06:34:32.992Z,52.30
2023-01-31T06:37:09.260Z,52.20
2023-01-31T06:39:42.667Z,52.20
2023-01-31T06:42:15.956Z,52.20
2023-01-31T06:44:50.696Z,52.00
2023-01-31T06:47:24.083Z,52.10
2023-01-31T06:49:57.411Z,52.00
2023-01-31T06:52:30.743Z,52.20
2023-01-31T06:55:04.194Z,52.10
2023-01-31T06:57:37.515Z,52.20
2023-01-31T07:00:13.746Z,52.30
2023-01-31T07:02:47.399Z,52.60
2023-01-31T07:05:21.596Z,53.00
2023-01-31T07:07:55.034Z,53.30
2023-01-31T07:10:28.330Z,53.20
2023-01-31T07:13:02.084Z,53.10
2023-01-31T07:15:36.633Z,53.10
2023-01-31T07:18:09.745Z,53.10
2023-01-31T07:20:43.733Z,53.00
2023-01-31T07:23:17.172Z,53.10
2023-01-31T07:25:50.787Z,53.00
2023-01-31T07:28:24.135Z,52.50
2023-01-31T07:31:05.507Z,52.10
2023-01-31T07:33:39.183Z,51.20
2023-01-31T07:36:15.237Z,50.90
2023-01-31T07:38:48.579Z,50.60
2023-01-31T07:41:22.391Z,50.30
2023-01-31T07:43:55.753Z,50.30
2023-01-31T07:46:31.031Z,50.30
2023-01-31T07:49:04.950Z,50.30
2023-01-31T07:51:41.302Z,50.30
2023-01-31T07:54:14.651Z,50.10
2023-01-31T07:56:48.610Z,50.00
2023-01-31T07:59:22.142Z,50.20
2023-01-31T08:02:14.406Z,50.30
2023-01-31T08:04:47.947Z,50.20
2023-01-31T08:07:22.410Z,50.20
2023-01-31T08:09:55.808Z,50.10
2023-01-31T08:12:29.414Z,50.00
2023-01-31T08:15:02.831Z,49.90
2023-01-31T08:17:37.976Z,49.80
2023-01-31T08:20:12.363Z,49.90
2023-01-31T08:22:45.795Z,49.90
2023-01-31T08:25:20.746Z,50.00
2023-01-31T08:27:54.263Z,50.00
2023-01-31T08:30:27.953Z,50.00
2023-01-31T08:33:02.576Z,50.00
2023-01-31T08:35:35.717Z,50.10
2023-01-31T08:38:16.421Z,50.20
2023-01-31T08:40:51.059Z,49.70
2023-01-31T08:43:24.363Z,49.20
2023-01-31T08:45:57.635Z,48.70
2023-01-31T08:48:33.655Z,48.30
2023-01-31T08:51:09.437Z,48.20
2023-01-31T08:53:44.719Z,48.00
2023-01-31T08:56:19.461Z,47.60
2023-01-31T08:58:53.182Z,48.30
2023-01-31T09:01:26.734Z,49.30
2023-01-31T09:04:01.771Z,50.70
2023-01-31T09:06:35.133Z,52.20
2023-01-31T09:09:08.527Z,52.00
2023-01-31T09:11:41.891Z,51.80
2023-01-31T09:14:15.327Z,51.50
2023-01-31T09:16:48.776Z,51.10
2023-01-31T09:19:23.736Z,50.50
2023-01-31T09:21:57.007Z,49.90
2023-01-31T09:24:30.660Z,49.50
2023-01-31T09:27:05.358Z,48.90
2023-01-31T09:29:44.475Z,48.40
2023-01-31T09:32:17.924Z,48.40
2023-01-31T09:34:52.634Z,47.50
2023-01-31T09:37:26.210Z,46.80
2023-01-31T09:39:59.548Z,46.40
2023-01-31T09:42:37.177Z,46.00
2023-01-31T09:45:14.804Z,45.60
2023-01-31T09:47:51.108Z,45.70
2023-01-31T09:50:34.376Z,45.50
2023-01-31T09:53:13.319Z,45.10
2023-01-31T09:55:52.964Z,37.60
2023-01-31T09:58:34.825Z,33.50
2023-01-31T10:01:17.610Z,31.40
2023-01-31T10:04:16.388Z,32.30
2023-01-31T10:06:57.505Z,33.50
2023-01-31T10:09:36.138Z,33.40
2023-01-31T10:12:17.017Z,34.00
2023-01-31T10:14:55.550Z,35.00
2023-01-31T10:17:34.410Z,34.90
2023-01-31T10:20:18.150Z,36.00
2023-01-31T10:23:02.519Z,36.00
2023-01-31T10:25:38.178Z,36.70
2023-01-31T10:28:15.376Z,38.20
2023-01-31T10:30:55.958Z,37.10
2023-01-31T10:33:37.855Z,37.30
2023-01-31T10:36:16.120Z,38.10
2023-01-31T10:39:01.581Z,38.00
2023-01-31T10:41:46.235Z,38.50
2023-01-31T10:44:25.619Z,38.90
2023-01-31T10:47:00.526Z,38.60
2023-01-31T10:49:33.822Z,38.30
2023-01-31T10:52:17.816Z,38.40
2023-01-31T10:55:03.366Z,38.20
2023-01-31T10:57:37.460Z,38.60
2023-01-31T11:00:19.070Z,38.80
2023-01-31T11:02:52.572Z,39.00
2023-01-31T11:05:28.521Z,39.20
2023-01-31T11:08:04.314Z,38.80
2023-01-31T11:10:53.023Z,38.80
2023-01-31T11:13:26.484Z,39.30
2023-01-31T11:16:00.247Z,38.70
2023-01-31T11:18:36.076Z,39.00
2023-01-31T11:21:09.525Z,40.20
2023-01-31T11:23:46.000Z,39.50
2023-01-31T11:26:30.598Z,39.60
2023-01-31T11:29:09.235Z,40.00
2023-01-31T11:31:47.606Z,39.60
2023-01-31T11:34:24.277Z,39.50
2023-01-31T11:37:06.751Z,39.50
2023-01-31T11:39:40.031Z,39.70
2023-01-31T11:42:16.886Z,39.50
2023-01-31T11:44:58.326Z,39.60
2023-01-31T11:47:43.659Z,39.70
2023-01-31T11:50:22.454Z,40.00
2023-01-31T11:52:57.913Z,39.60
2023-01-31T11:55:38.745Z,39.80
2023-01-31T11:58:20.945Z,39.80
2023-01-31T12:00:57.384Z,40.40
2023-01-31T12:03:31.645Z,40.20
2023-01-31T12:06:07.131Z,39.90
2023-01-31T12:08:42.300Z,40.20
2023-01-31T12:11:30.062Z,40.00
2023-01-31T12:14:16.129Z,39.80
2023-01-31T12:16:51.207Z,40.60
2023-01-31T12:19:40.985Z,40.10
2023-01-31T12:22:19.701Z,39.90
2023-01-31T12:25:06.777Z,39.80
2023-01-31T12:27:56.349Z,39.80
2023-01-31T12:30:46.220Z,40.20
2023-01-31T12:33:36.751Z,39.90
2023-01-31T12:36:26.951Z,40.00
2023-01-31T12:39:15.629Z,39.80
2023-01-31T12:42:01.872Z,39.80
2023-01-31T12:44:47.628Z,39.90
2023-01-31T12:47:56.249Z,40.10
2023-01-31T12:50:34.796Z,39.70
2023-01-31T12:53:22.208Z,39.50
2023-01-31T12:56:07.495Z,39.80
2023-01-31T12:59:03.022Z,39.40
2023-01-31T13:01:49.734Z,39.80
2023-01-31T13:04:37.554Z,39.60
2023-01-31T13:07:18.414Z,39.90
2023-01-31T13:09:54.218Z,40.00
2023-01-31T13:12:30.545Z,39.70
2023-01-31T13:15:09.108Z,39.50
2023-01-31T13:17:44.567Z,39.40
2023-01-31T13:20:29.280Z,39.40
2023-01-31T13:23:07.718Z,39.40
2023-01-31T13:25:44.667Z,39.40
2023-01-31T13:28:22.419Z,39.40
2023-01-31T13:30:58.684Z,39.40
2023-01-31T13:33:37.192Z,39.60
2023-01-31T13:36:22.757Z,39.00
2023-01-31T13:38:59.605Z,38.90
2023-01-31T13:41:34.980Z,39.30
2023-01-31T13:44:14.205Z,39.20
2023-01-31T13:46:52.951Z,39.90
2023-01-31T13:49:28.697Z,39.60
2023-01-31T13:52:06.275Z,39.60
2023-01-31T13:54:43.335Z,39.30
2023-01-31T13:57:25.487Z,39.20
2023-01-31T14:00:09.714Z,39.60
2023-01-31T14:03:01.407Z,39.80
2023-01-31T14:06:00.123Z,40.30
2023-01-31T14:08:39.397Z,40.10
2023-01-31T14:11:36.214Z,39.80
2023-01-31T14:14:21.085Z,39.80
2023-01-31T14:16:54.401Z,40.20
2023-01-31T14:20:06.785Z,39.90
2023-01-31T14:22:41.967Z,40.60
2023-01-31T14:25:16.697Z,40.30
2023-01-31T14:28:04.575Z,40.40
2023-01-31T14:30:43.364Z,40.90
2023-01-31T14:33:29.445Z,40.70
2023-01-31T14:36:43.738Z,40.90
2023-01-31T14:39:41.080Z,41.00
2023-01-31T14:42:35.962Z,41.60
2023-01-31T14:45:24.202Z,41.00
2023-01-31T14:48:16.498Z,41.70
2023-01-31T14:51:05.900Z,41.50
2023-01-31T14:54:07.955Z,42.50
2023-01-31T14:56:55.945Z,42.70
2023-01-31T14:59:33.904Z,42.20
2023-01-31T15:02:26.395Z,42.10
2023-01-31T15:05:02.842Z,42.10
2023-01-31T15:07:36.591Z,42.10
2023-01-31T15:10:49.653Z,42.20
2023-01-31T15:13:38.911Z,42.40
2023-01-31T15:16:22.398Z,42.40
2023-01-31T15:19:02.588Z,42.50
2023-01-31T15:21:40.886Z,42.70
2023-01-31T15:24:18.933Z,42.80
2023-01-31T15:26:53.451Z,43.10
2023-01-31T15:29:34.137Z,43.40
2023-01-31T15:32:17.463Z,43.50
2023-01-31T15:34:59.577Z,43.80
2023-01-31T15:37:36.331Z,43.90
2023-01-31T15:40:18.682Z,44.00
2023-01-31T15:42:52.269Z,44.10
2023-01-31T15:45:27.164Z,44.20
2023-01-31T15:48:01.966Z,44.20
2023-01-31T15:50:37.092Z,44.50
2023-01-31T15:53:16.620Z,44.50
2023-01-31T15:55:53.307Z,44.50
2023-01-31T15:58:29.115Z,44.30
2023-01-31T16:01:03.548Z,44.40
2023-01-31T16:03:41.512Z,44.40
2023-01-31T16:06:23.754Z,44.40
2023-01-31T16:09:02.167Z,44.40
2023-01-31T16:11:38.601Z,44.50
2023-01-31T16:14:13.028Z,44.50
2023-01-31T16:16:48.976Z,44.50
2023-01-31T16:19:27.801Z,44.60
2023-01-31T16:22:03.053Z,44.90
2023-01-31T16:24:36.382Z,44.90
2023-01-31T16:27:15.055Z,45.00
2023-01-31T16:29:51.544Z,45.00
2023-01-31T16:32:27.300Z,45.00
2023-01-31T16:35:02.424Z,44.90
2023-01-31T16:37:39.810Z,44.80
2023-01-31T16:40:22.652Z,44.80
2023-01-31T16:43:11.011Z,44.80
2023-01-31T16:45:52.953Z,44.80
2023-01-31T16:48:33.071Z,44.70
2023-01-31T16:51:39.014Z,44.60
2023-01-31T16:54:23.065Z,44.60
2023-01-31T16:57:09.385Z,44.50
2023-01-31T16:59:49.849Z,44.70
2023-01-31T17:02:26.805Z,44.90
2023-01-31T17:05:02.658Z,45.00
2023-01-31T17:07:38.010Z,45.00
2023-01-31T17:10:23.540Z,45.30
2023-01-31T17:13:02.007Z,45.70
2023-01-31T17:15:35.371Z,46.00
2023-01-31T17:18:10.666Z,46.10
2023-01-31T17:20:46.283Z,46.30
2023-01-31T17:23:19.899Z,46.50
2023-01-31T17:25:54.584Z,46.60
2023-01-31T17:28:27.872Z,46.70
2023-01-31T17:31:03.943Z,46.70
2023-01-31T17:33:37.487Z,46.70
2023-01-31T17:36:11.250Z,46.70
2023-01-31T17:38:44.626Z,46.50
2023-01-31T17:41:20.902Z,46.20
2023-01-31T17:43:54.266Z,46.20
2023-01-31T17:46:28.421Z,46.30
2023-01-31T17:49:01.963Z,46.30
2023-01-31T17:51:35.681Z,46.30
2023-01-31T17:54:10.298Z,46.50
2023-01-31T17:56:45.452Z,46.50
2023-01-31T17:59:26.919Z,46.30
2023-01-31T18:02:00.769Z,46.20
2023-01-31T18:04:34.417Z,46.20
2023-01-31T18:07:07.853Z,46.20
2023-01-31T18:09:41.192Z,45.90
2023-01-31T18:12:15.891Z,45.80
2023-01-31T18:14:49.492Z,45.70
2023-01-31T18:17:22.963Z,45.60
2023-01-31T18:19:56.358Z,45.40
2023-01-31T18:22:29.709Z,45.20
2023-01-31T18:25:03.013Z,45.20
2023-01-31T18:27:37.844Z,45.10
2023-01-31T18:30:12.456Z,45.10
2023-01-31T18:32:45.861Z,45.60
2023-01-31T18:35:21.607Z,45.20
2023-01-31T18:37:55.666Z,45.60
2023-01-31T18:40:29.343Z,46.20
2023-01-31T18:43:04.081Z,46.40
2023-01-31T18:45:39.084Z,46.40
2023-01-31T18:48:12.515Z,46.50
2023-01-31T18:50:46.265Z,46.50
2023-01-31T18:53:19.646Z,46.60
2023-01-31T18:56:00.438Z,46.90
2023-01-31T18:58:36.925Z,47.20
2023-01-31T19:01:12.259Z,47.30
2023-01-31T19:03:47.581Z,47.30
2023-01-31T19:06:22.747Z,47.40
2023-01-31T19:08:57.835Z,47.40
2023-01-31T19:11:32.216Z,47.50
2023-01-31T19:14:08.388Z,47.20
2023-01-31T19:16:42.986Z,47.20
2023-01-31T19:19:16.946Z,47.00
2023-01-31T19:21:50.608Z,46.80
2023-01-31T19:24:24.158Z,46.50
2023-01-31T19:26:57.559Z,46.40
2023-01-31T19:29:32.460Z,46.10
2023-01-31T19:32:06.302Z,45.80
2023-01-31T19:34:39.400Z,45.50
2023-01-31T19:37:12.732Z,45.20
2023-01-31T19:39:46.554Z,45.10
2023-01-31T19:42:20.637Z,45.00
2023-01-31T19:44:55.413Z,45.00
2023-01-31T19:47:28.744Z,44.90
2023-01-31T19:50:02.119Z,44.70
2023-01-31T19:52:36.544Z,44.60
2023-01-31T19:55:10.431Z,44.30
2023-01-31T19:57:43.524Z,44.30
2023-01-31T20:00:18.929Z,44.30
2023-01-31T20:02:52.316Z,44.10
2023-01-31T20:05:25.810Z,44.10
2023-01-31T20:07:59.170Z,44.10
2023-01-31T20:10:32.556Z,44.00
2023-01-31T20:13:06.128Z,43.90
2023-01-31T20:15:41.026Z,43.80
2023-01-31T20:18:14.400Z,43.50
2023-01-31T20:20:47.933Z,43.40
2023-01-31T20:23:21.313Z,43.50
2023-01-31T20:25:54.819Z,43.40
2023-01-31T20:28:28.645Z,43.30
2023-01-31T20:31:06.432Z,43.40
2023-01-31T20:33:40.025Z,43.40
2023-01-31T20:36:13.958Z,43.60
2023-01-31T20:38:47.466Z,43.70
2023-01-31T20:41:21.866Z,43.90
2023-01-31T20:43:55.183Z,44.60
2023-01-31T20:46:30.142Z,44.10
2023-01-31T20:49:03.550Z,44.00
2023-01-31T20:51:36.892Z,44.00
2023-01-31T20:54:10.288Z,44.10
2023-01-31T20:56:43.718Z,44.40
2023-01-31T20:59:17.267Z,45.10
2023-01-31T21:01:52.271Z,45.50
2023-01-31T21:04:25.567Z,45.90
2023-01-31T21:06:58.888Z,46.20
2023-01-31T21:09:32.187Z,46.40
2023-01-31T21:12:05.891Z,46.90
2023-01-31T21:14:39.090Z,47.30
2023-01-31T21:17:14.361Z,47.70
2023-01-31T21:19:49.681Z,47.70
2023-01-31T21:22:23.008Z,48.40
2023-01-31T21:24:56.436Z,48.70
2023-01-31T21:27:30.249Z,48.80
2023-01-31T21:30:03.401Z,49.10
2023-01-31T21:32:38.377Z,49.30
2023-01-31T21:35:11.815Z,49.20
2023-01-31T21:37:45.282Z,49.50
2023-01-31T21:40:19.578Z,49.50
2023-01-31T21:42:52.328Z,49.50
2023-01-31T21:48:32.661Z,49.70
2023-01-31T21:51:07.783Z,49.70
2023-01-31T21:53:42.054Z,49.70
2023-01-31T21:56:17.500Z,49.80
2023-01-31T21:58:52.106Z,50.00
2023-01-31T22:01:29.206Z,49.80
2023-01-31T22:04:04.432Z,50.00
2023-01-31T22:06:39.895Z,50.00
2023-01-31T22:09:14.091Z,50.00
2023-01-31T22:11:48.002Z,50.60
2023-01-31T22:14:21.719Z,50.10
2023-01-31T22:16:55.218Z,50.20
2023-01-31T22:19:30.000Z,50.20
2023-01-31T22:22:03.366Z,50.10
2023-01-31T22:24:36.860Z,50.20
2023-01-31T22:27:10.236Z,50.20
2023-01-31T22:29:43.709Z,50.10
2023-01-31T22:32:17.036Z,50.20
2023-01-31T22:34:51.772Z,50.30
2023-01-31T22:37:25.115Z,50.30
2023-01-31T22:39:58.396Z,50.30
2023-01-31T22:42:31.791Z,50.30
2023-01-31T22:45:07.203Z,50.40
2023-01-31T22:47:40.544Z,50.50
2023-01-31T22:50:15.293Z,50.60
2023-01-31T22:52:49.928Z,50.60
2023-01-31T22:55:23.187Z,50.60
2023-01-31T22:57:58.262Z,50.70
2023-01-31T23:00:31.608Z,50.70
2023-01-31T23:03:05.418Z,50.70
2023-01-31T23:05:43.623Z,50.60
2023-01-31T23:08:17.634Z,50.60
2023-01-31T23:10:50.943Z,50.60
2023-01-31T23:13:24.222Z,50.50
2023-01-31T23:15:57.770Z,50.60
2023-01-31T23:18:31.308Z,50.70
2023-01-31T23:21:11.535Z,50.70
2023-01-31T23:23:45.986Z,50.80
2023-01-31T23:26:19.370Z,50.80
2023-01-31T23:28:52.680Z,50.70
2023-01-31T23:31:26.242Z,50.60
2023-01-31T23:34:07.550Z,50.70
2023-01-31T23:36:42.444Z,50.90
2023-01-31T23:39:15.719Z,50.90
2023-01-31T23:41:49.034Z,50.80
2023-01-31T23:44:22.293Z,50.80
2023-01-31T23:46:55.605Z,50.90
2023-01-31T23:49:28.994Z,50.90
2023-01-31T23:52:03.924Z,50.70
2023-01-31T23:54:37.415Z,50.80
2023-01-31T23:57:10.772Z,51.00
2023-01-31T23:59:44.045Z,50.90
